sensor_id;sensor_type;location;lat;lon;timestamp;pressure;altitude;pressure_sealevel;temperature;humidity
18918;BME280;9591;52.742;13.650;2022-07-10T00:01:27;101475.25;;;11.97;100.00
18918;BME280;9591;52.742;13.650;2022-07-10T00:04:14;101482.47;;;11.92;100.00
18918;BME280;9591;52.742;13.650;2022-07-10T00:07:01;101474.47;;;11.93;100.00
18918;BME280;9591;52.742;13.650;2022-07-10T00:10:17;101471.06;;;11.88;100.00
18918;BME280;9591;52.742;13.650;2022-07-10T00:13:05;101480.84;;;11.86;100.00
18918;BME280;9591;52.742;13.650;2022-07-10T00:15:51;101475.56;;;11.85;100.00
18918;BME280;9591;52.742;13.650;2022-07-10T00:18:40;101468.56;;;11.82;100.00
18918;BME280;9591;52.742;13.650;2022-07-10T00:21:27;101473.81;;;11.84;100.00
18918;BME280;9591;52.742;13.650;2022-07-10T00:24:14;101475.53;;;11.86;100.00
18918;BME280;9591;52.742;13.650;2022-07-10T00:27:01;101481.63;;;11.90;100.00
18918;BME280;9591;52.742;13.650;2022-07-10T00:29:47;101473.50;;;11.96;100.00
18918;BME280;9591;52.742;13.650;2022-07-10T00:32:35;101474.38;;;11.96;100.00
18918;BME280;9591;52.742;13.650;2022-07-10T00:35:23;101466.53;;;11.92;100.00
18918;BME280;9591;52.742;13.650;2022-07-10T00:38:09;101466.47;;;11.95;100.00
18918;BME280;9591;52.742;13.650;2022-07-10T00:40:56;101465.59;;;11.94;100.00
18918;BME280;9591;52.742;13.650;2022-07-10T00:43:53;101454.19;;;11.91;100.00
18918;BME280;9591;52.742;13.650;2022-07-10T00:46:40;101461.31;;;11.89;100.00
18918;BME280;9591;52.742;13.650;2022-07-10T00:49:27;101450.69;;;11.89;100.00
18918;BME280;9591;52.742;13.650;2022-07-10T00:52:16;101450.50;;;11.96;100.00
18918;BME280;9591;52.742;13.650;2022-07-10T00:55:04;101454.00;;;11.97;100.00
18918;BME280;9591;52.742;13.650;2022-07-10T00:57:51;101449.56;;;11.97;100.00
18918;BME280;9591;52.742;13.650;2022-07-10T01:00:38;101452.34;;;11.93;100.00
18918;BME280;9591;52.742;13.650;2022-07-10T01:03:25;101447.13;;;11.90;100.00
18918;BME280;9591;52.742;13.650;2022-07-10T01:06:12;101447.91;;;11.93;100.00
18918;BME280;9591;52.742;13.650;2022-07-10T01:09:00;101451.41;;;11.95;100.00
18918;BME280;9591;52.742;13.650;2022-07-10T01:11:47;101445.38;;;11.89;100.00
18918;BME280;9591;52.742;13.650;2022-07-10T01:14:34;101440.22;;;11.82;100.00
18918;BME280;9591;52.742;13.650;2022-07-10T01:17:23;101441.16;;;11.81;100.00
18918;BME280;9591;52.742;13.650;2022-07-10T01:20:10;101439.25;;;11.87;100.00
18918;BME280;9591;52.742;13.650;2022-07-10T01:22:58;101436.75;;;11.80;100.00
18918;BME280;9591;52.742;13.650;2022-07-10T01:25:45;101438.41;;;11.85;100.00
18918;BME280;9591;52.742;13.650;2022-07-10T01:28:32;101445.53;;;11.82;100.00
18918;BME280;9591;52.742;13.650;2022-07-10T01:31:20;101443.59;;;11.89;100.00
18918;BME280;9591;52.742;13.650;2022-07-10T01:34:10;101444.38;;;11.93;100.00
18918;BME280;9591;52.742;13.650;2022-07-10T01:36:57;101439.06;;;11.93;100.00
18918;BME280;9591;52.742;13.650;2022-07-10T01:39:45;101433.94;;;11.87;100.00
18918;BME280;9591;52.742;13.650;2022-07-10T01:42:32;101430.44;;;11.85;100.00
18918;BME280;9591;52.742;13.650;2022-07-10T01:45:20;101433.25;;;11.78;100.00
18918;BME280;9591;52.742;13.650;2022-07-10T01:48:07;101429.69;;;11.79;100.00
18918;BME280;9591;52.742;13.650;2022-07-10T01:50:54;101429.78;;;11.75;100.00
18918;BME280;9591;52.742;13.650;2022-07-10T01:53:41;101430.59;;;11.78;100.00
18918;BME280;9591;52.742;13.650;2022-07-10T01:56:54;101424.31;;;11.82;100.00
18918;BME280;9591;52.742;13.650;2022-07-10T01:59:41;101426.06;;;11.84;100.00
18918;BME280;9591;52.742;13.650;2022-07-10T02:02:28;101425.97;;;11.87;100.00
18918;BME280;9591;52.742;13.650;2022-07-10T02:05:15;101422.47;;;11.85;100.00
18918;BME280;9591;52.742;13.650;2022-07-10T02:08:00;101423.41;;;11.84;100.00
18918;BME280;9591;52.742;13.650;2022-07-10T02:10:49;101419.88;;;11.83;100.00
18918;BME280;9591;52.742;13.650;2022-07-10T02:13:37;101417.38;;;11.77;100.00
18918;BME280;9591;52.742;13.650;2022-07-10T02:16:25;101416.56;;;11.73;100.00
18918;BME280;9591;52.742;13.650;2022-07-10T02:19:12;101415.50;;;11.80;100.00
18918;BME280;9591;52.742;13.650;2022-07-10T02:21:59;101412.84;;;11.80;100.00
18918;BME280;9591;52.742;13.650;2022-07-10T02:24:46;101417.72;;;11.97;100.00
18918;BME280;9591;52.742;13.650;2022-07-10T02:27:33;101414.41;;;11.89;100.00
18918;BME280;9591;52.742;13.650;2022-07-10T02:30:21;101414.16;;;11.98;100.00
18918;BME280;9591;52.742;13.650;2022-07-10T02:33:08;101411.53;;;11.97;100.00
18918;BME280;9591;52.742;13.650;2022-07-10T02:35:55;101403.28;;;12.07;100.00
18918;BME280;9591;52.742;13.650;2022-07-10T02:38:42;101401.84;;;11.96;100.00
18918;BME280;9591;52.742;13.650;2022-07-10T02:41:28;101400.88;;;11.98;100.00
18918;BME280;9591;52.742;13.650;2022-07-10T02:44:15;101410.59;;;11.99;100.00
18918;BME280;9591;52.742;13.650;2022-07-10T02:47:03;101404.66;;;11.90;100.00
18918;BME280;9591;52.742;13.650;2022-07-10T02:49:50;101402.56;;;12.01;100.00
18918;BME280;9591;52.742;13.650;2022-07-10T02:52:37;101405.97;;;12.06;100.00
18918;BME280;9591;52.742;13.650;2022-07-10T02:55:24;101413.00;;;12.08;100.00
18918;BME280;9591;52.742;13.650;2022-07-10T02:58:11;101402.50;;;12.04;100.00
18918;BME280;9591;52.742;13.650;2022-07-10T03:01:00;101408.19;;;12.21;100.00
18918;BME280;9591;52.742;13.650;2022-07-10T03:03:49;101399.66;;;12.10;100.00
18918;BME280;9591;52.742;13.650;2022-07-10T03:06:36;101394.03;;;12.21;100.00
18918;BME280;9591;52.742;13.650;2022-07-10T03:09:23;101391.31;;;12.22;100.00
18918;BME280;9591;52.742;13.650;2022-07-10T03:12:10;101408.22;;;12.20;100.00
18918;BME280;9591;52.742;13.650;2022-07-10T03:14:58;101402.03;;;12.19;100.00
18918;BME280;9591;52.742;13.650;2022-07-10T03:17:45;101397.72;;;12.15;100.00
18918;BME280;9591;52.742;13.650;2022-07-10T03:20:33;101397.84;;;12.12;100.00
18918;BME280;9591;52.742;13.650;2022-07-10T03:23:20;101397.38;;;12.27;100.00
18918;BME280;9591;52.742;13.650;2022-07-10T03:26:09;101391.16;;;12.28;100.00
18918;BME280;9591;52.742;13.650;2022-07-10T03:28:56;101392.25;;;12.21;100.00
18918;BME280;9591;52.742;13.650;2022-07-10T03:31:42;101388.81;;;12.18;100.00
18918;BME280;9591;52.742;13.650;2022-07-10T03:34:29;101402.03;;;12.19;100.00
18918;BME280;9591;52.742;13.650;2022-07-10T03:37:19;101392.16;;;12.24;100.00
18918;BME280;9591;52.742;13.650;2022-07-10T03:40:07;101391.31;;;12.22;100.00
18918;BME280;9591;52.742;13.650;2022-07-10T03:43:19;101393.03;;;12.25;100.00
18918;BME280;9591;52.742;13.650;2022-07-10T03:46:05;101392.25;;;12.21;100.00
18918;BME280;9591;52.742;13.650;2022-07-10T03:48:52;101393.06;;;12.23;100.00
18918;BME280;9591;52.742;13.650;2022-07-10T03:52:04;101391.16;;;12.28;100.00
18918;BME280;9591;52.742;13.650;2022-07-10T03:54:54;101400.56;;;12.40;100.00
18918;BME280;9591;52.742;13.650;2022-07-10T03:57:41;101400.72;;;12.34;100.00
18918;BME280;9591;52.742;13.650;2022-07-10T04:01:05;101396.81;;;12.47;100.00
18918;BME280;9591;52.742;13.650;2022-07-10T04:03:52;101395.84;;;12.50;100.00
18918;BME280;9591;52.742;13.650;2022-07-10T04:06:39;101396.91;;;12.44;100.00
18918;BME280;9591;52.742;13.650;2022-07-10T04:09:25;101385.41;;;12.43;100.00
18918;BME280;9591;52.742;13.650;2022-07-10T04:12:14;101390.94;;;12.36;100.00
18918;BME280;9591;52.742;13.650;2022-07-10T04:15:01;101388.28;;;12.36;100.00
18918;BME280;9591;52.742;13.650;2022-07-10T04:17:48;101381.00;;;12.42;100.00
18918;BME280;9591;52.742;13.650;2022-07-10T04:20:35;101389.06;;;12.39;100.00
18918;BME280;9591;52.742;13.650;2022-07-10T04:23:22;101380.63;;;12.55;100.00
18918;BME280;9591;52.742;13.650;2022-07-10T04:26:34;101384.84;;;12.62;100.00
18918;BME280;9591;52.742;13.650;2022-07-10T04:29:24;101394.38;;;12.69;100.00
18918;BME280;9591;52.742;13.650;2022-07-10T04:32:11;101387.97;;;12.76;100.00
18918;BME280;9591;52.742;13.650;2022-07-10T04:34:58;101385.25;;;12.77;100.00
18918;BME280;9591;52.742;13.650;2022-07-10T04:37:47;101384.09;;;12.86;100.00
18918;BME280;9591;52.742;13.650;2022-07-10T04:41:00;101382.13;;;12.93;100.00
18918;BME280;9591;52.742;13.650;2022-07-10T04:43:49;101382.84;;;12.98;100.00
18918;BME280;9591;52.742;13.650;2022-07-10T04:46:39;101384.94;;;13.14;100.00
18918;BME280;9591;52.742;13.650;2022-07-10T04:49:26;101378.88;;;13.09;100.00
18918;BME280;9591;52.742;13.650;2022-07-10T04:52:16;101369.81;;;13.17;100.00
18918;BME280;9591;52.742;13.650;2022-07-10T04:55:03;101376.88;;;13.18;100.00
18918;BME280;9591;52.742;13.650;2022-07-10T04:57:50;101373.22;;;13.22;100.00
18918;BME280;9591;52.742;13.650;2022-07-10T05:00:37;101375.75;;;13.25;100.00
18918;BME280;9591;52.742;13.650;2022-07-10T05:03:27;101371.13;;;13.31;100.00
18918;BME280;9591;52.742;13.650;2022-07-10T05:06:14;101373.25;;;13.20;100.00
18918;BME280;9591;52.742;13.650;2022-07-10T05:09:01;101375.88;;;13.22;100.00
18918;BME280;9591;52.742;13.650;2022-07-10T05:11:48;101382.00;;;13.24;100.00
18918;BME280;9591;52.742;13.650;2022-07-10T05:14:37;101372.91;;;13.31;100.00
18918;BME280;9591;52.742;13.650;2022-07-10T05:17:24;101377.34;;;13.30;100.00
18918;BME280;9591;52.742;13.650;2022-07-10T05:20:17;101371.16;;;13.30;100.00
18918;BME280;9591;52.742;13.650;2022-07-10T05:23:06;101373.53;;;13.39;100.00
18918;BME280;9591;52.742;13.650;2022-07-10T05:25:53;101371.84;;;13.36;100.00
18918;BME280;9591;52.742;13.650;2022-07-10T05:28:40;101383.50;;;13.32;100.00
18918;BME280;9591;52.742;13.650;2022-07-10T05:31:28;101384.56;;;13.53;100.00
18918;BME280;9591;52.742;13.650;2022-07-10T05:34:15;101382.13;;;13.47;100.00
18918;BME280;9591;52.742;13.650;2022-07-10T05:37:30;101376.59;;;13.53;100.00
18918;BME280;9591;52.742;13.650;2022-07-10T05:40:44;101377.41;;;13.55;100.00
18918;BME280;9591;52.742;13.650;2022-07-10T05:43:56;101384.81;;;13.72;100.00
18918;BME280;9591;52.742;13.650;2022-07-10T05:46:47;101379.38;;;13.75;100.00
18918;BME280;9591;52.742;13.650;2022-07-10T05:49:34;101379.16;;;13.81;100.00
18918;BME280;9591;52.742;13.650;2022-07-10T05:52:21;101386.13;;;13.85;100.00
18918;BME280;9591;52.742;13.650;2022-07-10T05:55:38;101377.44;;;14.03;100.00
18918;BME280;9591;52.742;13.650;2022-07-10T05:58:24;101378.56;;;14.21;100.00
18918;BME280;9591;52.742;13.650;2022-07-10T06:01:36;101390.38;;;14.37;100.00
18918;BME280;9591;52.742;13.650;2022-07-10T06:04:23;101385.88;;;14.39;100.00
18918;BME280;9591;52.742;13.650;2022-07-10T06:07:09;101385.28;;;14.56;100.00
18918;BME280;9591;52.742;13.650;2022-07-10T06:09:56;101394.59;;;14.68;100.00
18918;BME280;9591;52.742;13.650;2022-07-10T06:12:44;101381.38;;;14.65;100.00
18918;BME280;9591;52.742;13.650;2022-07-10T06:15:31;101384.84;;;14.67;100.00
18918;BME280;9591;52.742;13.650;2022-07-10T06:18:18;101387.19;;;14.53;100.00
18918;BME280;9591;52.742;13.650;2022-07-10T06:21:07;101387.00;;;14.57;100.00
18918;BME280;9591;52.742;13.650;2022-07-10T06:24:19;101377.03;;;14.62;100.00
18918;BME280;9591;52.742;13.650;2022-07-10T06:27:08;101385.31;;;14.55;100.00
18918;BME280;9591;52.742;13.650;2022-07-10T06:29:58;101380.78;;;14.33;100.00
18918;BME280;9591;52.742;13.650;2022-07-10T06:32:45;101381.38;;;14.41;100.00
18918;BME280;9591;52.742;13.650;2022-07-10T06:35:59;101389.38;;;14.41;100.00
18918;BME280;9591;52.742;13.650;2022-07-10T06:38:46;101388.66;;;14.36;100.00
18918;BME280;9591;52.742;13.650;2022-07-10T06:41:33;101390.34;;;14.39;100.00
18918;BME280;9591;52.742;13.650;2022-07-10T06:44:22;101383.28;;;14.38;100.00
18918;BME280;9591;52.742;13.650;2022-07-10T06:47:12;101379.75;;;14.61;100.00
18918;BME280;9591;52.742;13.650;2022-07-10T06:50:16;101379.41;;;14.70;100.00
18918;BME280;9591;52.742;13.650;2022-07-10T06:53:03;101381.94;;;14.73;100.00
18918;BME280;9591;52.742;13.650;2022-07-10T06:55:53;101385.22;;;14.80;100.00
18918;BME280;9591;52.742;13.650;2022-07-10T06:58:40;101389.25;;;14.90;100.00
18918;BME280;9591;52.742;13.650;2022-07-10T07:01:27;101383.19;;;15.08;100.00
18918;BME280;9591;52.742;13.650;2022-07-10T07:04:15;101385.84;;;15.08;100.00
18918;BME280;9591;52.742;13.650;2022-07-10T07:07:02;101386.28;;;14.97;100.00
18918;BME280;9591;52.742;13.650;2022-07-10T07:09:52;101382.25;;;14.87;100.00
18918;BME280;9591;52.742;13.650;2022-07-10T07:13:04;101384.22;;;14.82;100.00
18918;BME280;9591;52.742;13.650;2022-07-10T07:15:50;101381.63;;;14.81;100.00
18918;BME280;9591;52.742;13.650;2022-07-10T07:19:10;101381.56;;;14.82;100.00
18918;BME280;9591;52.742;13.650;2022-07-10T07:22:07;101388.34;;;14.91;100.00
18918;BME280;9591;52.742;13.650;2022-07-10T07:25:18;101385.66;;;14.91;100.00
18918;BME280;9591;52.742;13.650;2022-07-10T07:28:05;101391.00;;;14.91;100.00
18918;BME280;9591;52.742;13.650;2022-07-10T07:30:52;101382.00;;;14.93;100.00
18918;BME280;9591;52.742;13.650;2022-07-10T07:33:39;101384.25;;;15.04;100.00
18918;BME280;9591;52.742;13.650;2022-07-10T07:36:35;101394.47;;;15.15;100.00
18918;BME280;9591;52.742;13.650;2022-07-10T07:39:25;101392.25;;;15.26;100.00
18918;BME280;9591;52.742;13.650;2022-07-10T07:42:39;101395.97;;;15.44;100.00
18918;BME280;9591;52.742;13.650;2022-07-10T07:45:51;101389.38;;;15.52;100.00
18918;BME280;9591;52.742;13.650;2022-07-10T07:48:41;101389.50;;;15.69;100.00
18918;BME280;9591;52.742;13.650;2022-07-10T07:51:28;101384.78;;;15.76;100.00
18918;BME280;9591;52.742;13.650;2022-07-10T07:54:18;101385.78;;;15.94;100.00
18918;BME280;9591;52.742;13.650;2022-07-10T07:57:07;101385.25;;;16.06;100.00
18918;BME280;9591;52.742;13.650;2022-07-10T07:59:53;101376.94;;;16.12;100.00
18918;BME280;9591;52.742;13.650;2022-07-10T08:02:43;101385.25;;;16.06;99.66
18918;BME280;9591;52.742;13.650;2022-07-10T08:05:35;101387.06;;;15.85;100.00
18918;BME280;9591;52.742;13.650;2022-07-10T08:08:21;101378.25;;;15.83;100.00
18918;BME280;9591;52.742;13.650;2022-07-10T08:11:08;101379.38;;;15.98;100.00
18918;BME280;9591;52.742;13.650;2022-07-10T08:13:56;101370.66;;;16.13;100.00
18918;BME280;9591;52.742;13.650;2022-07-10T08:16:43;101378.78;;;16.30;99.94
18918;BME280;9591;52.742;13.650;2022-07-10T08:19:55;101375.97;;;16.33;99.37
18918;BME280;9591;52.742;13.650;2022-07-10T08:22:43;101370.63;;;16.33;100.00
18918;BME280;9591;52.742;13.650;2022-07-10T08:25:32;101377.38;;;16.42;96.73
18918;BME280;9591;52.742;13.650;2022-07-10T08:28:20;101373.38;;;16.51;97.54
18918;BME280;9591;52.742;13.650;2022-07-10T08:31:12;101376.16;;;16.68;96.32
18918;BME280;9591;52.742;13.650;2022-07-10T08:34:00;101368.47;;;16.79;94.62
18918;BME280;9591;52.742;13.650;2022-07-10T08:36:47;101375.78;;;16.76;91.21
18918;BME280;9591;52.742;13.650;2022-07-10T08:39:37;101373.09;;;16.94;90.89
18918;BME280;9591;52.742;13.650;2022-07-10T08:42:27;101377.41;;;17.16;91.00
18918;BME280;9591;52.742;13.650;2022-07-10T08:45:39;101382.16;;;17.28;92.53
18918;BME280;9591;52.742;13.650;2022-07-10T08:48:29;101376.13;;;17.06;87.43
18918;BME280;9591;52.742;13.650;2022-07-10T08:51:30;101367.41;;;16.83;92.31
18918;BME280;9591;52.742;13.650;2022-07-10T08:54:47;101383.81;;;16.76;90.96
18918;BME280;9591;52.742;13.650;2022-07-10T08:57:35;101393.31;;;16.62;92.35
18918;BME280;9591;52.742;13.650;2022-07-10T09:00:24;101395.19;;;16.60;94.05
18918;BME280;9591;52.742;13.650;2022-07-10T09:03:11;101399.50;;;16.64;93.96
18918;BME280;9591;52.742;13.650;2022-07-10T09:06:24;101396.81;;;16.83;94.40
18918;BME280;9591;52.742;13.650;2022-07-10T09:09:50;101391.00;;;17.11;93.15
18918;BME280;9591;52.742;13.650;2022-07-10T09:12:56;101401.69;;;17.30;89.59
18918;BME280;9591;52.742;13.650;2022-07-10T09:15:50;101392.53;;;17.34;88.28
18918;BME280;9591;52.742;13.650;2022-07-10T09:19:14;101394.97;;;17.38;87.32
18918;BME280;9591;52.742;13.650;2022-07-10T09:22:28;101399.53;;;17.19;89.72
18918;BME280;9591;52.742;13.650;2022-07-10T09:25:21;101400.84;;;17.11;88.13
18918;BME280;9591;52.742;13.650;2022-07-10T09:28:33;101402.56;;;17.12;89.77
18918;BME280;9591;52.742;13.650;2022-07-10T09:31:22;101400.06;;;17.09;87.27
18918;BME280;9591;52.742;13.650;2022-07-10T09:34:12;101400.84;;;17.11;88.46
18918;BME280;9591;52.742;13.650;2022-07-10T09:37:27;101402.22;;;17.19;88.25
18918;BME280;9591;52.742;13.650;2022-07-10T09:40:15;101400.97;;;17.26;89.51
18918;BME280;9591;52.742;13.650;2022-07-10T09:43:02;101399.69;;;17.33;88.23
18918;BME280;9591;52.742;13.650;2022-07-10T09:45:56;101394.97;;;17.21;88.74
18918;BME280;9591;52.742;13.650;2022-07-10T09:48:45;101389.13;;;17.13;86.19
18918;BME280;9591;52.742;13.650;2022-07-10T09:51:36;101371.34;;;17.12;86.83
18918;BME280;9591;52.742;13.650;2022-07-10T09:54:38;101395.38;;;17.48;86.93
18918;BME280;9591;52.742;13.650;2022-07-10T10:01:04;101393.66;;;17.64;85.29
18918;BME280;9591;52.742;13.650;2022-07-10T10:03:51;101367.31;;;17.38;84.04
18918;BME280;9591;52.742;13.650;2022-07-10T10:07:03;101395.19;;;17.34;83.75
18918;BME280;9591;52.742;13.650;2022-07-10T10:09:59;101399.59;;;17.18;87.97
18918;BME280;9591;52.742;13.650;2022-07-10T10:12:58;101391.50;;;17.36;86.96
18918;BME280;9591;52.742;13.650;2022-07-10T10:15:46;101388.44;;;17.44;86.41
18918;BME280;9591;52.742;13.650;2022-07-10T10:18:42;101386.28;;;17.69;86.42
18918;BME280;9591;52.742;13.650;2022-07-10T10:22:12;101389.56;;;18.09;83.30
18918;BME280;9591;52.742;13.650;2022-07-10T10:28:43;101391.06;;;18.15;81.76
18918;BME280;9591;52.742;13.650;2022-07-10T10:31:29;101394.78;;;17.95;79.84
18918;BME280;9591;52.742;13.650;2022-07-10T10:34:49;101391.88;;;17.82;82.89
18918;BME280;9591;52.742;13.650;2022-07-10T10:37:50;101400.88;;;17.81;83.82
18918;BME280;9591;52.742;13.650;2022-07-10T10:40:42;101395.81;;;17.92;84.52
18918;BME280;9591;52.742;13.650;2022-07-10T10:43:29;101397.94;;;18.03;80.58
18918;BME280;9591;52.742;13.650;2022-07-10T10:46:23;101399.91;;;17.99;80.63
18918;BME280;9591;52.742;13.650;2022-07-10T10:52:59;101397.28;;;18.31;79.49
18918;BME280;9591;52.742;13.650;2022-07-10T11:00:03;101397.16;;;18.50;78.02
18918;BME280;9591;52.742;13.650;2022-07-10T11:03:23;101397.94;;;18.69;77.41
18918;BME280;9591;52.742;13.650;2022-07-10T11:06:12;101407.13;;;18.81;76.55
18918;BME280;9591;52.742;13.650;2022-07-10T11:09:21;101396.38;;;18.81;74.64
18918;BME280;9591;52.742;13.650;2022-07-10T11:12:56;101386.16;;;18.87;77.58
18918;BME280;9591;52.742;13.650;2022-07-10T11:15:49;101398.47;;;18.91;76.56
18918;BME280;9591;52.742;13.650;2022-07-10T11:19:30;101397.25;;;18.97;77.42
18918;BME280;9591;52.742;13.650;2022-07-10T11:22:56;101401.31;;;19.04;76.18
18918;BME280;9591;52.742;13.650;2022-07-10T11:25:59;101398.69;;;19.18;74.29
18918;BME280;9591;52.742;13.650;2022-07-10T11:29:07;101397.28;;;19.27;74.68
18918;BME280;9591;52.742;13.650;2022-07-10T11:31:54;101404.97;;;19.33;75.59
18918;BME280;9591;52.742;13.650;2022-07-10T11:34:41;101409.69;;;19.14;71.50
18918;BME280;9591;52.742;13.650;2022-07-10T11:37:55;101409.47;;;19.03;75.89
18918;BME280;9591;52.742;13.650;2022-07-10T11:41:16;101406.41;;;19.09;75.14
18918;BME280;9591;52.742;13.650;2022-07-10T11:48:17;101403.06;;;19.35;71.33
18918;BME280;9591;52.742;13.650;2022-07-10T11:51:33;101411.13;;;19.35;69.22
18918;BME280;9591;52.742;13.650;2022-07-10T11:54:28;101415.38;;;19.23;70.13
18918;BME280;9591;52.742;13.650;2022-07-10T11:57:19;101413.91;;;19.18;71.79
18918;BME280;9591;52.742;13.650;2022-07-10T12:00:22;101408.19;;;19.24;76.97
18918;BME280;9591;52.742;13.650;2022-07-10T12:03:17;101408.03;;;19.27;74.40
18918;BME280;9591;52.742;13.650;2022-07-10T12:06:16;101414.16;;;19.29;75.06
18918;BME280;9591;52.742;13.650;2022-07-10T12:09:07;101419.53;;;19.29;70.50
18918;BME280;9591;52.742;13.650;2022-07-10T12:12:00;101421.47;;;19.11;71.68
18918;BME280;9591;52.742;13.650;2022-07-10T12:14:54;101428.56;;;19.12;71.92
18918;BME280;9591;52.742;13.650;2022-07-10T12:17:50;101427.34;;;19.18;70.17
18918;BME280;9591;52.742;13.650;2022-07-10T12:20:37;101425.19;;;19.24;71.13
18918;BME280;9591;52.742;13.650;2022-07-10T12:23:30;101425.69;;;19.31;72.46
18918;BME280;9591;52.742;13.650;2022-07-10T12:26:19;101424.81;;;19.46;68.58
18918;BME280;9591;52.742;13.650;2022-07-10T12:29:11;101419.72;;;19.57;68.60
18918;BME280;9591;52.742;13.650;2022-07-10T12:32:21;101425.69;;;19.62;68.67
18918;BME280;9591;52.742;13.650;2022-07-10T12:36:07;101424.34;;;19.70;67.80
18918;BME280;9591;52.742;13.650;2022-07-10T12:39:20;101421.00;;;19.66;68.23
18918;BME280;9591;52.742;13.650;2022-07-10T12:42:10;101426.28;;;19.68;65.39
18918;BME280;9591;52.742;13.650;2022-07-10T12:45:27;101420.03;;;19.67;64.39
18918;BME280;9591;52.742;13.650;2022-07-10T12:48:22;101426.28;;;19.68;69.01
18918;BME280;9591;52.742;13.650;2022-07-10T12:51:25;101440.31;;;19.73;68.10
18918;BME280;9591;52.742;13.650;2022-07-10T12:54:31;101427.50;;;19.62;65.57
18918;BME280;9591;52.742;13.650;2022-07-10T12:57:20;101423.03;;;19.77;63.99
18918;BME280;9591;52.742;13.650;2022-07-10T13:00:13;101426.03;;;19.86;65.51
18918;BME280;9591;52.742;13.650;2022-07-10T13:06:40;101430.19;;;19.46;67.43
18918;BME280;9591;52.742;13.650;2022-07-10T13:09:32;101423.69;;;19.50;69.76
18918;BME280;9591;52.742;13.650;2022-07-10T13:12:19;101431.81;;;19.64;66.71
18918;BME280;9591;52.742;13.650;2022-07-10T13:15:11;101442.41;;;19.68;69.57
18918;BME280;9591;52.742;13.650;2022-07-10T13:18:18;101425.13;;;19.72;67.97
18918;BME280;9591;52.742;13.650;2022-07-10T13:21:29;101436.06;;;19.69;66.24
18918;BME280;9591;52.742;13.650;2022-07-10T13:24:20;101438.47;;;19.73;66.74
18918;BME280;9591;52.742;13.650;2022-07-10T13:27:06;101434.50;;;19.64;66.72
18918;BME280;9591;52.742;13.650;2022-07-10T13:29:53;101439.97;;;19.47;67.46
18918;BME280;9591;52.742;13.650;2022-07-10T13:33:08;101433.50;;;19.51;63.80
18918;BME280;9591;52.742;13.650;2022-07-10T13:36:00;101439.88;;;19.64;67.51
18918;BME280;9591;52.742;13.650;2022-07-10T13:38:48;101439.03;;;19.64;67.29
18918;BME280;9591;52.742;13.650;2022-07-10T13:41:44;101452.19;;;19.69;66.13
18918;BME280;9591;52.742;13.650;2022-07-10T13:44:31;101445.94;;;19.68;66.98
18918;BME280;9591;52.742;13.650;2022-07-10T13:47:18;101439.94;;;19.79;65.58
18918;BME280;9591;52.742;13.650;2022-07-10T13:50:07;101449.63;;;19.81;67.86
18918;BME280;9591;52.742;13.650;2022-07-10T13:52:58;101439.75;;;19.82;65.20
18918;BME280;9591;52.742;13.650;2022-07-10T13:55:48;101434.19;;;19.85;66.88
18918;BME280;9591;52.742;13.650;2022-07-10T13:58:43;101438.34;;;19.90;65.54
18918;BME280;9591;52.742;13.650;2022-07-10T14:01:31;101440.44;;;19.85;64.26
18918;BME280;9591;52.742;13.650;2022-07-10T14:04:18;101430.88;;;19.66;61.32
18918;BME280;9591;52.742;13.650;2022-07-10T14:07:33;101442.91;;;19.74;62.91
18918;BME280;9591;52.742;13.650;2022-07-10T14:10:45;101442.41;;;19.68;63.02
18918;BME280;9591;52.742;13.650;2022-07-10T14:13:32;101445.06;;;19.68;64.47
18918;BME280;9591;52.742;13.650;2022-07-10T14:16:25;101437.81;;;19.54;59.89
18918;BME280;9591;52.742;13.650;2022-07-10T14:19:12;101436.50;;;19.61;61.59
18918;BME280;9591;52.742;13.650;2022-07-10T14:21:59;101432.06;;;19.76;61.38
18918;BME280;9591;52.742;13.650;2022-07-10T14:25:11;101429.59;;;19.87;61.52
18918;BME280;9591;52.742;13.650;2022-07-10T14:28:02;101423.59;;;19.68;59.88
18918;BME280;9591;52.742;13.650;2022-07-10T14:30:50;101422.44;;;19.72;61.53
18918;BME280;9591;52.742;13.650;2022-07-10T14:34:06;101422.59;;;19.84;61.07
18918;BME280;9591;52.742;13.650;2022-07-10T14:36:53;101429.00;;;19.82;61.57
18918;BME280;9591;52.742;13.650;2022-07-10T14:39:46;101426.03;;;20.01;62.03
18918;BME280;9591;52.742;13.650;2022-07-10T14:43:00;101416.47;;;20.11;61.39
18918;BME280;9591;52.742;13.650;2022-07-10T14:45:50;101414.56;;;20.27;63.40
18918;BME280;9591;52.742;13.650;2022-07-10T14:48:47;101421.66;;;20.28;61.26
18918;BME280;9591;52.742;13.650;2022-07-10T14:51:38;101428.09;;;20.25;58.79
18918;BME280;9591;52.742;13.650;2022-07-10T14:54:29;101412.72;;;20.13;57.92
18918;BME280;9591;52.742;13.650;2022-07-10T14:57:16;101407.91;;;20.04;58.36
18918;BME280;9591;52.742;13.650;2022-07-10T15:00:05;101406.38;;;20.14;58.38
18918;BME280;9591;52.742;13.650;2022-07-10T15:02:52;101411.38;;;20.06;59.55
18918;BME280;9591;52.742;13.650;2022-07-10T15:05:46;101398.88;;;20.05;56.54
18918;BME280;9591;52.742;13.650;2022-07-10T15:08:41;101401.75;;;19.88;54.51
18918;BME280;9591;52.742;13.650;2022-07-10T15:11:56;101404.34;;;20.04;58.33
18918;BME280;9591;52.742;13.650;2022-07-10T15:14:43;101401.56;;;20.05;56.86
18918;BME280;9591;52.742;13.650;2022-07-10T15:17:32;101396.97;;;20.07;58.72
18918;BME280;9591;52.742;13.650;2022-07-10T15:20:43;101385.66;;;20.16;58.53
18918;BME280;9591;52.742;13.650;2022-07-10T15:23:32;101387.00;;;20.23;59.30
18918;BME280;9591;52.742;13.650;2022-07-10T15:26:20;101380.94;;;20.34;57.74